sensor_id;sensor_type;location;lat;lon;timestamp;P1;durP1;ratioP1;P2;durP2;ratioP2
49934;SDS011;39898;41.762;26.200;2023-04-16T00:01:34;34.85;;;9.85;;
49934;SDS011;39898;41.762;26.200;2023-04-16T00:04:01;33.20;;;10.70;;
49934;SDS011;39898;41.762;26.200;2023-04-16T00:06:28;28.52;;;10.00;;
49934;SDS011;39898;41.762;26.200;2023-04-16T00:08:55;37.42;;;10.50;;
49934;SDS011;39898;41.762;26.200;2023-04-16T00:11:22;31.55;;;9.60;;
49934;SDS011;39898;41.762;26.200;2023-04-16T00:13:48;27.73;;;9.38;;
49934;SDS011;39898;41.762;26.200;2023-04-16T00:16:15;26.27;;;8.70;;
49934;SDS011;39898;41.762;26.200;2023-04-16T00:18:41;33.20;;;9.88;;
49934;SDS011;39898;41.762;26.200;2023-04-16T00:21:08;31.65;;;8.30;;
49934;SDS011;39898;41.762;26.200;2023-04-16T00:23:34;39.75;;;11.30;;
49934;SDS011;39898;41.762;26.200;2023-04-16T00:26:01;27.15;;;10.55;;
49934;SDS011;39898;41.762;26.200;2023-04-16T00:28:27;39.47;;;9.68;;
49934;SDS011;39898;41.762;26.200;2023-04-16T00:30:54;37.30;;;8.98;;
49934;SDS011;39898;41.762;26.200;2023-04-16T00:33:21;32.80;;;11.68;;
49934;SDS011;39898;41.762;26.200;2023-04-16T00:35:47;40.33;;;10.43;;
49934;SDS011;39898;41.762;26.200;2023-04-16T00:38:14;37.67;;;10.52;;
49934;SDS011;39898;41.762;26.200;2023-04-16T00:40:41;37.42;;;10.65;;
49934;SDS011;39898;41.762;26.200;2023-04-16T00:43:07;32.88;;;11.02;;
49934;SDS011;39898;41.762;26.200;2023-04-16T00:45:34;28.20;;;10.40;;
49934;SDS011;39898;41.762;26.200;2023-04-16T00:48:01;43.97;;;12.68;;
49934;SDS011;39898;41.762;26.200;2023-04-16T00:50:28;38.92;;;13.77;;
49934;SDS011;39898;41.762;26.200;2023-04-16T00:52:55;39.85;;;13.18;;
49934;SDS011;39898;41.762;26.200;2023-04-16T00:55:21;37.20;;;13.15;;
49934;SDS011;39898;41.762;26.200;2023-04-16T00:57:48;43.50;;;13.32;;
49934;SDS011;39898;41.762;26.200;2023-04-16T01:00:15;47.30;;;14.27;;
49934;SDS011;39898;41.762;26.200;2023-04-16T01:02:42;39.33;;;13.77;;
49934;SDS011;39898;41.762;26.200;2023-04-16T01:05:08;47.63;;;15.60;;
49934;SDS011;39898;41.762;26.200;2023-04-16T01:07:35;38.05;;;15.20;;
49934;SDS011;39898;41.762;26.200;2023-04-16T01:10:02;52.50;;;15.45;;
49934;SDS011;39898;41.762;26.200;2023-04-16T01:12:28;48.88;;;16.63;;
49934;SDS011;39898;41.762;26.200;2023-04-16T01:14:55;46.28;;;16.27;;
49934;SDS011;39898;41.762;26.200;2023-04-16T01:17:22;51.25;;;14.90;;
49934;SDS011;39898;41.762;26.200;2023-04-16T01:19:49;63.25;;;16.13;;
49934;SDS011;39898;41.762;26.200;2023-04-16T01:22:15;46.13;;;15.80;;
49934;SDS011;39898;41.762;26.200;2023-04-16T01:24:42;42.40;;;15.05;;
49934;SDS011;39898;41.762;26.200;2023-04-16T01:27:09;54.78;;;15.35;;
49934;SDS011;39898;41.762;26.200;2023-04-16T01:29:35;49.08;;;14.70;;
49934;SDS011;39898;41.762;26.200;2023-04-16T01:32:02;46.05;;;14.00;;
49934;SDS011;39898;41.762;26.200;2023-04-16T01:34:28;43.92;;;16.55;;
49934;SDS011;39898;41.762;26.200;2023-04-16T01:36:55;61.00;;;14.95;;
49934;SDS011;39898;41.762;26.200;2023-04-16T01:39:22;51.03;;;14.95;;
49934;SDS011;39898;41.762;26.200;2023-04-16T01:41:48;42.67;;;14.68;;
49934;SDS011;39898;41.762;26.200;2023-04-16T01:44:15;46.83;;;15.73;;
49934;SDS011;39898;41.762;26.200;2023-04-16T01:46:41;59.88;;;16.95;;
49934;SDS011;39898;41.762;26.200;2023-04-16T01:49:09;45.67;;;16.60;;
49934;SDS011;39898;41.762;26.200;2023-04-16T01:51:36;55.72;;;17.30;;
49934;SDS011;39898;41.762;26.200;2023-04-16T01:54:03;63.10;;;18.05;;
49934;SDS011;39898;41.762;26.200;2023-04-16T01:56:29;47.55;;;18.70;;
49934;SDS011;39898;41.762;26.200;2023-04-16T01:58:56;40.13;;;17.75;;
49934;SDS011;39898;41.762;26.200;2023-04-16T02:01:22;56.08;;;19.20;;
49934;SDS011;39898;41.762;26.200;2023-04-16T02:03:50;69.65;;;19.55;;
49934;SDS011;39898;41.762;26.200;2023-04-16T02:06:16;49.10;;;20.80;;
49934;SDS011;39898;41.762;26.200;2023-04-16T02:08:43;51.25;;;20.88;;
49934;SDS011;39898;41.762;26.200;2023-04-16T02:11:10;58.30;;;21.55;;
49934;SDS011;39898;41.762;26.200;2023-04-16T02:13:36;69.70;;;23.35;;
49934;SDS011;39898;41.762;26.200;2023-04-16T02:16:03;58.05;;;20.63;;
49934;SDS011;39898;41.762;26.200;2023-04-16T02:18:29;74.85;;;23.08;;
49934;SDS011;39898;41.762;26.200;2023-04-16T02:20:56;66.22;;;23.92;;
49934;SDS011;39898;41.762;26.200;2023-04-16T02:23:23;74.97;;;25.13;;
49934;SDS011;39898;41.762;26.200;2023-04-16T02:25:50;65.68;;;25.02;;
49934;SDS011;39898;41.762;26.200;2023-04-16T02:28:16;67.32;;;25.83;;
49934;SDS011;39898;41.762;26.200;2023-04-16T02:30:43;70.65;;;24.27;;
49934;SDS011;39898;41.762;26.200;2023-04-16T02:33:10;47.60;;;23.67;;
49934;SDS011;39898;41.762;26.200;2023-04-16T02:35:37;68.18;;;25.08;;
49934;SDS011;39898;41.762;26.200;2023-04-16T02:38:04;73.35;;;26.08;;
49934;SDS011;39898;41.762;26.200;2023-04-16T02:40:31;52.20;;;23.75;;
49934;SDS011;39898;41.762;26.200;2023-04-16T02:42:57;67.90;;;24.10;;
49934;SDS011;39898;41.762;26.200;2023-04-16T02:45:24;63.38;;;22.38;;
49934;SDS011;39898;41.762;26.200;2023-04-16T02:47:50;68.18;;;23.75;;
49934;SDS011;39898;41.762;26.200;2023-04-16T02:50:17;57.97;;;21.55;;
49934;SDS011;39898;41.762;26.200;2023-04-16T02:52:44;57.92;;;24.17;;
49934;SDS011;39898;41.762;26.200;2023-04-16T02:55:10;71.70;;;22.38;;
49934;SDS011;39898;41.762;26.200;2023-04-16T02:57:37;52.35;;;23.08;;
49934;SDS011;39898;41.762;26.200;2023-04-16T03:00:03;49.35;;;23.42;;
49934;SDS011;39898;41.762;26.200;2023-04-16T03:02:30;49.60;;;23.75;;
49934;SDS011;39898;41.762;26.200;2023-04-16T03:04:57;73.47;;;25.42;;
49934;SDS011;39898;41.762;26.200;2023-04-16T03:07:23;52.83;;;21.88;;
49934;SDS011;39898;41.762;26.200;2023-04-16T03:09:50;62.30;;;23.30;;
49934;SDS011;39898;41.762;26.200;2023-04-16T03:12:17;50.42;;;21.38;;
49934;SDS011;39898;41.762;26.200;2023-04-16T03:14:43;52.42;;;22.98;;
49934;SDS011;39898;41.762;26.200;2023-04-16T03:17:10;60.53;;;24.58;;
49934;SDS011;39898;41.762;26.200;2023-04-16T03:19:36;79.30;;;34.22;;
49934;SDS011;39898;41.762;26.200;2023-04-16T03:22:03;118.28;;;48.95;;
49934;SDS011;39898;41.762;26.200;2023-04-16T03:24:30;81.75;;;31.17;;
49934;SDS011;39898;41.762;26.200;2023-04-16T03:26:57;61.60;;;22.13;;
49934;SDS011;39898;41.762;26.200;2023-04-16T03:29:24;78.60;;;34.55;;
49934;SDS011;39898;41.762;26.200;2023-04-16T03:31:52;64.03;;;26.77;;
49934;SDS011;39898;41.762;26.200;2023-04-16T03:34:18;64.47;;;26.50;;
49934;SDS011;39898;41.762;26.200;2023-04-16T03:36:45;61.13;;;25.55;;
49934;SDS011;39898;41.762;26.200;2023-04-16T03:39:11;70.45;;;30.20;;
49934;SDS011;39898;41.762;26.200;2023-04-16T03:41:38;74.07;;;29.15;;
49934;SDS011;39898;41.762;26.200;2023-04-16T03:44:05;72.45;;;27.83;;
49934;SDS011;39898;41.762;26.200;2023-04-16T03:46:31;65.90;;;29.35;;
49934;SDS011;39898;41.762;26.200;2023-04-16T03:48:58;71.38;;;31.40;;
49934;SDS011;39898;41.762;26.200;2023-04-16T03:51:24;73.97;;;30.40;;
49934;SDS011;39898;41.762;26.200;2023-04-16T03:53:51;70.40;;;30.02;;
49934;SDS011;39898;41.762;26.200;2023-04-16T03:56:18;85.10;;;30.08;;
49934;SDS011;39898;41.762;26.200;2023-04-16T03:58:44;66.82;;;29.20;;
49934;SDS011;39898;41.762;26.200;2023-04-16T04:01:11;76.03;;;31.00;;
49934;SDS011;39898;41.762;26.200;2023-04-16T04:03:37;75.43;;;29.98;;
49934;SDS011;39898;41.762;26.200;2023-04-16T04:06:08;69.22;;;30.65;;
49934;SDS011;39898;41.762;26.200;2023-04-16T04:08:34;67.07;;;28.70;;
49934;SDS011;39898;41.762;26.200;2023-04-16T04:11:01;78.50;;;33.20;;
49934;SDS011;39898;41.762;26.200;2023-04-16T04:13:27;67.55;;;29.15;;
49934;SDS011;39898;41.762;26.200;2023-04-16T04:15:54;81.93;;;31.80;;
49934;SDS011;39898;41.762;26.200;2023-04-16T04:18:20;71.22;;;29.58;;
49934;SDS011;39898;41.762;26.200;2023-04-16T04:20:47;72.22;;;30.25;;
49934;SDS011;39898;41.762;26.200;2023-04-16T04:23:14;75.40;;;28.70;;
49934;SDS011;39898;41.762;26.200;2023-04-16T04:25:40;73.03;;;30.02;;
49934;SDS011;39898;41.762;26.200;2023-04-16T04:28:07;57.00;;;28.52;;
49934;SDS011;39898;41.762;26.200;2023-04-16T04:30:33;66.20;;;30.15;;
49934;SDS011;39898;41.762;26.200;2023-04-16T04:33:01;69.20;;;32.97;;
49934;SDS011;39898;41.762;26.200;2023-04-16T04:35:27;77.95;;;31.30;;
49934;SDS011;39898;41.762;26.200;2023-04-16T04:37:54;71.47;;;31.50;;
49934;SDS011;39898;41.762;26.200;2023-04-16T04:40:21;65.82;;;29.80;;
49934;SDS011;39898;41.762;26.200;2023-04-16T04:42:47;71.85;;;28.92;;
49934;SDS011;39898;41.762;26.200;2023-04-16T04:45:14;68.80;;;28.98;;
49934;SDS011;39898;41.762;26.200;2023-04-16T04:47:41;77.10;;;30.63;;
49934;SDS011;39898;41.762;26.200;2023-04-16T04:50:08;69.57;;;28.58;;
49934;SDS011;39898;41.762;26.200;2023-04-16T04:52:34;66.43;;;28.27;;
49934;SDS011;39898;41.762;26.200;2023-04-16T04:55:01;72.70;;;29.10;;
49934;SDS011;39898;41.762;26.200;2023-04-16T04:57:27;61.45;;;28.88;;
49934;SDS011;39898;41.762;26.200;2023-04-16T04:59:54;66.00;;;27.77;;
49934;SDS011;39898;41.762;26.200;2023-04-16T05:02:20;63.67;;;27.83;;
49934;SDS011;39898;41.762;26.200;2023-04-16T05:04:47;74.28;;;28.70;;
49934;SDS011;39898;41.762;26.200;2023-04-16T05:07:14;74.15;;;28.83;;
49934;SDS011;39898;41.762;26.200;2023-04-16T05:09:40;60.33;;;27.20;;
49934;SDS011;39898;41.762;26.200;2023-04-16T05:12:07;73.78;;;27.10;;
49934;SDS011;39898;41.762;26.200;2023-04-16T05:14:33;75.07;;;28.88;;
49934;SDS011;39898;41.762;26.200;2023-04-16T05:17:01;80.93;;;29.80;;
49934;SDS011;39898;41.762;26.200;2023-04-16T05:19:28;81.97;;;29.25;;
49934;SDS011;39898;41.762;26.200;2023-04-16T05:21:54;69.38;;;30.95;;
49934;SDS011;39898;41.762;26.200;2023-04-16T05:24:21;72.00;;;28.35;;
49934;SDS011;39898;41.762;26.200;2023-04-16T05:26:48;64.20;;;29.27;;
49934;SDS011;39898;41.762;26.200;2023-04-16T05:29:15;71.50;;;29.42;;
49934;SDS011;39898;41.762;26.200;2023-04-16T05:31:41;70.57;;;27.95;;
49934;SDS011;39898;41.762;26.200;2023-04-16T05:34:08;75.28;;;29.05;;
49934;SDS011;39898;41.762;26.200;2023-04-16T05:36:34;61.92;;;26.52;;
49934;SDS011;39898;41.762;26.200;2023-04-16T05:39:01;67.35;;;27.70;;
49934;SDS011;39898;41.762;26.200;2023-04-16T05:41:27;69.40;;;28.15;;
49934;SDS011;39898;41.762;26.200;2023-04-16T05:43:54;72.97;;;27.75;;
49934;SDS011;39898;41.762;26.200;2023-04-16T05:46:21;66.43;;;27.17;;
49934;SDS011;39898;41.762;26.200;2023-04-16T05:48:48;78.95;;;28.45;;
49934;SDS011;39898;41.762;26.200;2023-04-16T05:51:14;73.15;;;26.38;;
49934;SDS011;39898;41.762;26.200;2023-04-16T05:53:41;74.18;;;28.48;;
49934;SDS011;39898;41.762;26.200;2023-04-16T05:56:08;62.88;;;25.65;;
49934;SDS011;39898;41.762;26.200;2023-04-16T05:58:34;58.22;;;24.50;;
49934;SDS011;39898;41.762;26.200;2023-04-16T06:01:01;54.63;;;25.10;;
49934;SDS011;39898;41.762;26.200;2023-04-16T06:03:28;53.92;;;23.02;;
49934;SDS011;39898;41.762;26.200;2023-04-16T06:05:55;56.78;;;21.33;;
49934;SDS011;39898;41.762;26.200;2023-04-16T06:08:22;51.17;;;20.17;;
49934;SDS011;39898;41.762;26.200;2023-04-16T06:10:49;48.35;;;22.27;;
49934;SDS011;39898;41.762;26.200;2023-04-16T06:13:17;50.28;;;22.00;;
49934;SDS011;39898;41.762;26.200;2023-04-16T06:15:43;50.30;;;21.38;;
49934;SDS011;39898;41.762;26.200;2023-04-16T06:18:10;49.13;;;21.50;;
49934;SDS011;39898;41.762;26.200;2023-04-16T06:20:37;61.55;;;21.45;;
49934;SDS011;39898;41.762;26.200;2023-04-16T06:23:04;48.72;;;20.45;;
49934;SDS011;39898;41.762;26.200;2023-04-16T06:25:30;48.08;;;21.90;;
49934;SDS011;39898;41.762;26.200;2023-04-16T06:27:57;52.33;;;21.70;;
49934;SDS011;39898;41.762;26.200;2023-04-16T06:30:24;53.88;;;21.52;;
49934;SDS011;39898;41.762;26.200;2023-04-16T06:32:50;65.05;;;21.23;;
49934;SDS011;39898;41.762;26.200;2023-04-16T06:35:18;51.67;;;21.13;;
49934;SDS011;39898;41.762;26.200;2023-04-16T06:37:45;60.87;;;20.20;;
49934;SDS011;39898;41.762;26.200;2023-04-16T06:40:12;49.05;;;20.05;;
49934;SDS011;39898;41.762;26.200;2023-04-16T06:42:38;58.00;;;21.92;;
49934;SDS011;39898;41.762;26.200;2023-04-16T06:45:06;56.47;;;17.55;;
49934;SDS011;39898;41.762;26.200;2023-04-16T06:47:33;40.63;;;18.50;;
49934;SDS011;39898;41.762;26.200;2023-04-16T06:49:59;44.70;;;18.90;;
49934;SDS011;39898;41.762;26.200;2023-04-16T06:52:26;42.40;;;17.10;;
49934;SDS011;39898;41.762;26.200;2023-04-16T06:54:54;54.22;;;17.52;;
49934;SDS011;39898;41.762;26.200;2023-04-16T06:57:20;46.90;;;17.48;;
49934;SDS011;39898;41.762;26.200;2023-04-16T06:59:47;48.30;;;16.85;;
49934;SDS011;39898;41.762;26.200;2023-04-16T07:02:13;40.97;;;16.52;;
49934;SDS011;39898;41.762;26.200;2023-04-16T07:04:40;36.28;;;15.80;;
49934;SDS011;39898;41.762;26.200;2023-04-16T07:07:07;41.15;;;13.95;;
49934;SDS011;39898;41.762;26.200;2023-04-16T07:09:34;35.13;;;13.95;;
49934;SDS011;39898;41.762;26.200;2023-04-16T07:12:00;24.70;;;13.02;;
49934;SDS011;39898;41.762;26.200;2023-04-16T07:14:27;31.73;;;11.65;;
49934;SDS011;39898;41.762;26.200;2023-04-16T07:16:54;33.65;;;12.30;;
49934;SDS011;39898;41.762;26.200;2023-04-16T07:19:20;31.20;;;12.15;;
49934;SDS011;39898;41.762;26.200;2023-04-16T07:21:47;31.58;;;11.68;;
49934;SDS011;39898;41.762;26.200;2023-04-16T07:24:14;29.58;;;12.68;;
49934;SDS011;39898;41.762;26.200;2023-04-16T07:26:40;35.50;;;12.75;;
49934;SDS011;39898;41.762;26.200;2023-04-16T07:29:07;38.03;;;12.93;;
49934;SDS011;39898;41.762;26.200;2023-04-16T07:31:34;25.52;;;12.38;;
49934;SDS011;39898;41.762;26.200;2023-04-16T07:34:01;41.03;;;13.38;;
49934;SDS011;39898;41.762;26.200;2023-04-16T07:36:28;31.20;;;12.63;;
49934;SDS011;39898;41.762;26.200;2023-04-16T07:38:54;27.13;;;12.40;;
49934;SDS011;39898;41.762;26.200;2023-04-16T07:41:21;30.30;;;13.38;;
49934;SDS011;39898;41.762;26.200;2023-04-16T07:43:48;30.42;;;13.15;;
49934;SDS011;39898;41.762;26.200;2023-04-16T07:46:14;24.30;;;12.25;;
49934;SDS011;39898;41.762;26.200;2023-04-16T07:48:42;34.88;;;11.77;;
49934;SDS011;39898;41.762;26.200;2023-04-16T07:51:09;30.75;;;11.52;;
49934;SDS011;39898;41.762;26.200;2023-04-16T07:53:35;23.58;;;9.82;;
49934;SDS011;39898;41.762;26.200;2023-04-16T07:56:02;24.77;;;10.52;;
49934;SDS011;39898;41.762;26.200;2023-04-16T07:58:28;27.10;;;9.95;;
49934;SDS011;39898;41.762;26.200;2023-04-16T08:00:55;29.65;;;10.27;;
49934;SDS011;39898;41.762;26.200;2023-04-16T08:03:22;22.83;;;9.13;;
49934;SDS011;39898;41.762;26.200;2023-04-16T08:05:48;18.30;;;9.32;;
49934;SDS011;39898;41.762;26.200;2023-04-16T08:08:15;26.08;;;9.57;;
49934;SDS011;39898;41.762;26.200;2023-04-16T08:10:42;27.17;;;9.55;;
49934;SDS011;39898;41.762;26.200;2023-04-16T08:13:08;24.15;;;8.70;;
49934;SDS011;39898;41.762;26.200;2023-04-16T08:15:35;21.73;;;9.77;;
49934;SDS011;39898;41.762;26.200;2023-04-16T08:18:01;28.52;;;9.80;;
49934;SDS011;39898;41.762;26.200;2023-04-16T08:20:28;18.33;;;8.18;;
49934;SDS011;39898;41.762;26.200;2023-04-16T08:22:55;25.35;;;9.10;;
49934;SDS011;39898;41.762;26.200;2023-04-16T08:25:21;26.33;;;8.07;;
49934;SDS011;39898;41.762;26.200;2023-04-16T08:27:49;16.73;;;7.68;;
49934;SDS011;39898;41.762;26.200;2023-04-16T08:30:16;17.77;;;8.05;;
49934;SDS011;39898;41.762;26.200;2023-04-16T08:32:43;21.08;;;8.40;;
49934;SDS011;39898;41.762;26.200;2023-04-16T08:35:09;18.10;;;6.85;;
49934;SDS011;39898;41.762;26.200;2023-04-16T08:37:36;17.13;;;7.22;;
49934;SDS011;39898;41.762;26.200;2023-04-16T08:40:02;15.30;;;6.65;;
49934;SDS011;39898;41.762;26.200;2023-04-16T08:42:30;20.35;;;7.18;;
49934;SDS011;39898;41.762;26.200;2023-04-16T08:45:07;13.80;;;6.88;;
49934;SDS011;39898;41.762;26.200;2023-04-16T08:47:34;20.25;;;9.02;;
49934;SDS011;39898;41.762;26.200;2023-04-16T08:50:04;27.02;;;8.50;;
49934;SDS011;39898;41.762;26.200;2023-04-16T08:52:31;19.20;;;8.45;;
49934;SDS011;39898;41.762;26.200;2023-04-16T08:55:12;28.42;;;10.27;;
49934;SDS011;39898;41.762;26.200;2023-04-16T08:57:43;28.35;;;10.75;;
49934;SDS011;39898;41.762;26.200;2023-04-16T09:00:12;48.72;;;13.35;;
49934;SDS011;39898;41.762;26.200;2023-04-16T09:02:39;39.03;;;13.98;;
49934;SDS011;39898;41.762;26.200;2023-04-16T09:05:06;30.63;;;12.48;;
49934;SDS011;39898;41.762;26.200;2023-04-16T09:07:33;32.95;;;13.30;;
49934;SDS011;39898;41.762;26.200;2023-04-16T09:10:00;38.78;;;15.80;;
49934;SDS011;39898;41.762;26.200;2023-04-16T09:12:27;36.97;;;15.90;;
49934;SDS011;39898;41.762;26.200;2023-04-16T09:14:53;23.25;;;12.27;;
49934;SDS011;39898;41.762;26.200;2023-04-16T09:17:22;18.25;;;5.63;;
49934;SDS011;39898;41.762;26.200;2023-04-16T09:19:48;11.73;;;3.35;;
49934;SDS011;39898;41.762;26.200;2023-04-16T09:22:15;15.02;;;3.63;;
49934;SDS011;39898;41.762;26.200;2023-04-16T09:24:42;8.35;;;3.17;;
49934;SDS011;39898;41.762;26.200;2023-04-16T09:27:09;7.97;;;3.38;;
49934;SDS011;39898;41.762;26.200;2023-04-16T09:32:04;7.38;;;3.38;;
49934;SDS011;39898;41.762;26.200;2023-04-16T09:34:32;12.68;;;4.47;;
49934;SDS011;39898;41.762;26.200;2023-04-16T09:37:20;8.80;;;4.27;;
49934;SDS011;39898;41.762;26.200;2023-04-16T09:40:07;9.75;;;4.20;;
49934;SDS011;39898;41.762;26.200;2023-04-16T09:42:33;10.55;;;4.10;;
49934;SDS011;39898;41.762;26.200;2023-04-16T09:47:39;14.30;;;4.53;;
49934;SDS011;39898;41.762;26.200;2023-04-16T09:50:07;7.18;;;3.22;;
49934;SDS011;39898;41.762;26.200;2023-04-16T09:52:37;16.25;;;4.97;;
49934;SDS011;39898;41.762;26.200;2023-04-16T09:55:04;16.00;;;7.07;;
49934;SDS011;39898;41.762;26.200;2023-04-16T09:57:31;11.77;;;4.45;;
49934;SDS011;39898;41.762;26.200;2023-04-16T10:00:02;8.95;;;4.50;;
49934;SDS011;39898;41.762;26.200;2023-04-16T10:02:29;14.38;;;7.10;;
49934;SDS011;39898;41.762;26.200;2023-04-16T10:04:56;31.25;;;16.27;;
49934;SDS011;39898;41.762;26.200;2023-04-16T10:07:26;34.35;;;14.90;;
49934;SDS011;39898;41.762;26.200;2023-04-16T10:09:53;16.10;;;5.68;;
49934;SDS011;39898;41.762;26.200;2023-04-16T10:12:21;9.40;;;4.82;;
49934;SDS011;39898;41.762;26.200;2023-04-16T10:14:47;7.68;;;3.58;;
49934;SDS011;39898;41.762;26.200;2023-04-16T10:17:15;10.48;;;3.40;;
49934;SDS011;39898;41.762;26.200;2023-04-16T10:19:42;8.07;;;4.15;;
49934;SDS011;39898;41.762;26.200;2023-04-16T10:22:09;11.43;;;4.30;;
49934;SDS011;39898;41.762;26.200;2023-04-16T10:24:36;10.55;;;4.90;;
49934;SDS011;39898;41.762;26.200;2023-04-16T10:27:03;10.48;;;5.22;;
49934;SDS011;39898;41.762;26.200;2023-04-16T10:29:30;8.50;;;4.65;;
49934;SDS011;39898;41.762;26.200;2023-04-16T10:31:57;10.63;;;4.50;;
49934;SDS011;39898;41.762;26.200;2023-04-16T10:34:24;12.80;;;5.37;;
49934;SDS011;39898;41.762;26.200;2023-04-16T10:36:52;15.68;;;5.43;;
49934;SDS011;39898;41.762;26.200;2023-04-16T10:39:22;12.73;;;4.88;;
49934;SDS011;39898;41.762;26.200;2023-04-16T10:41:50;8.95;;;4.38;;
49934;SDS011;39898;41.762;26.200;2023-04-16T10:44:31;8.13;;;4.32;;
49934;SDS011;39898;41.762;26.200;2023-04-16T10:46:58;16.92;;;4.72;;
49934;SDS011;39898;41.762;26.200;2023-04-16T10:49:25;13.00;;;4.95;;
49934;SDS011;39898;41.762;26.200;2023-04-16T10:54:21;9.93;;;4.30;;
49934;SDS011;39898;41.762;26.200;2023-04-16T10:56:48;12.45;;;4.38;;
49934;SDS011;39898;41.762;26.200;2023-04-16T10:59:19;8.97;;;4.50;;
49934;SDS011;39898;41.762;26.200;2023-04-16T11:01:47;13.13;;;4.53;;
49934;SDS011;39898;41.762;26.200;2023-04-16T11:12:15;11.98;;;4.93;;
49934;SDS011;39898;41.762;26.200;2023-04-16T11:14:51;14.43;;;4.60;;
49934;SDS011;39898;41.762;26.200;2023-04-16T11:17:18;15.32;;;4.82;;
49934;SDS011;39898;41.762;26.200;2023-04-16T11:19:45;15.15;;;5.30;;
49934;SDS011;39898;41.762;26.200;2023-04-16T11:22:13;22.73;;;6.22;;
49934;SDS011;39898;41.762;26.200;2023-04-16T11:24:43;13.43;;;5.35;;
49934;SDS011;39898;41.762;26.200;2023-04-16T11:27:10;22.70;;;8.07;;
49934;SDS011;39898;41.762;26.200;2023-04-16T11:29:37;14.50;;;5.30;;
49934;SDS011;39898;41.762;26.200;2023-04-16T11:32:04;10.88;;;4.85;;
49934;SDS011;39898;41.762;26.200;2023-04-16T11:34:31;13.20;;;5.30;;
49934;SDS011;39898;41.762;26.200;2023-04-16T11:36:58;10.53;;;4.83;;
49934;SDS011;39898;41.762;26.200;2023-04-16T11:39:25;14.32;;;6.07;;
49934;SDS011;39898;41.762;26.200;2023-04-16T11:41:52;15.70;;;4.88;;
49934;SDS011;39898;41.762;26.200;2023-04-16T11:44:25;8.73;;;4.00;;
49934;SDS011;39898;41.762;26.200;2023-04-16T11:46:53;10.30;;;3.03;;
49934;SDS011;39898;41.762;26.200;2023-04-16T11:49:29;9.95;;;3.58;;
49934;SDS011;39898;41.762;26.200;2023-04-16T11:51:56;15.88;;;4.22;;
49934;SDS011;39898;41.762;26.200;2023-04-16T11:54:23;14.70;;;4.47;;
49934;SDS011;39898;41.762;26.200;2023-04-16T11:56:51;14.68;;;4.60;;
